sensor_id;sensor_type;location;lat;lon;timestamp;P1;durP1;ratioP1;P2;durP2;ratioP2
28958;SDS011;16066;0.000;0.000;2023-12-22T06:01:56;14.47;;;10.10;;
28958;SDS011;16066;0.000;0.000;2023-12-22T06:04:23;13.97;;;10.03;;
28958;SDS011;16066;0.000;0.000;2023-12-22T06:06:49;15.40;;;10.20;;
28958;SDS011;16066;0.000;0.000;2023-12-22T06:09:15;15.90;;;11.20;;
28958;SDS011;16066;0.000;0.000;2023-12-22T06:11:42;14.03;;;9.53;;
28958;SDS011;16066;0.000;0.000;2023-12-22T06:14:07;15.30;;;10.70;;
28958;SDS011;16066;0.000;0.000;2023-12-22T06:16:33;16.00;;;10.20;;
28958;SDS011;16066;0.000;0.000;2023-12-22T06:18:58;18.60;;;11.47;;
28958;SDS011;16066;0.000;0.000;2023-12-22T06:21:24;13.30;;;8.90;;
28958;SDS011;16066;0.000;0.000;2023-12-22T06:23:49;16.40;;;10.90;;
28958;SDS011;16066;0.000;0.000;2023-12-22T06:26:15;14.53;;;9.67;;
28958;SDS011;16066;0.000;0.000;2023-12-22T06:28:41;15.20;;;10.50;;
28958;SDS011;16066;0.000;0.000;2023-12-22T06:31:07;13.50;;;9.37;;
28958;SDS011;16066;0.000;0.000;2023-12-22T06:33:33;13.10;;;9.50;;
28958;SDS011;16066;0.000;0.000;2023-12-22T06:35:59;19.40;;;10.07;;
28958;SDS011;16066;0.000;0.000;2023-12-22T06:38:24;13.63;;;9.30;;
28958;SDS011;16066;0.000;0.000;2023-12-22T06:40:50;12.87;;;9.27;;
28958;SDS011;16066;0.000;0.000;2023-12-22T06:43:15;14.73;;;10.43;;
28958;SDS011;16066;0.000;0.000;2023-12-22T06:45:41;14.43;;;9.83;;
28958;SDS011;16066;0.000;0.000;2023-12-22T06:48:06;16.40;;;10.40;;
28958;SDS011;16066;0.000;0.000;2023-12-22T06:50:32;14.23;;;9.40;;
28958;SDS011;16066;0.000;0.000;2023-12-22T06:52:58;14.07;;;9.83;;
28958;SDS011;16066;0.000;0.000;2023-12-22T06:55:24;13.80;;;9.10;;
28958;SDS011;16066;0.000;0.000;2023-12-22T06:57:49;13.23;;;8.70;;
28958;SDS011;16066;0.000;0.000;2023-12-22T07:00:15;13.23;;;8.90;;
28958;SDS011;16066;0.000;0.000;2023-12-22T07:02:41;13.07;;;8.63;;
28958;SDS011;16066;0.000;0.000;2023-12-22T07:07:46;12.77;;;8.50;;
28958;SDS011;16066;0.000;0.000;2023-12-22T07:10:11;11.57;;;8.37;;
28958;SDS011;16066;0.000;0.000;2023-12-22T07:12:37;11.60;;;7.73;;
28958;SDS011;16066;0.000;0.000;2023-12-22T07:15:04;12.40;;;8.10;;
28958;SDS011;16066;0.000;0.000;2023-12-22T07:17:33;11.23;;;8.00;;
28958;SDS011;16066;0.000;0.000;2023-12-22T07:19:58;11.00;;;8.50;;
28958;SDS011;16066;0.000;0.000;2023-12-22T07:22:24;12.23;;;8.67;;
28958;SDS011;16066;0.000;0.000;2023-12-22T07:24:49;12.63;;;8.17;;
28958;SDS011;16066;0.000;0.000;2023-12-22T07:27:17;12.27;;;8.40;;
28958;SDS011;16066;0.000;0.000;2023-12-22T07:29:43;12.23;;;7.40;;
28958;SDS011;16066;0.000;0.000;2023-12-22T07:32:08;10.40;;;8.00;;
28958;SDS011;16066;0.000;0.000;2023-12-22T07:34:34;14.37;;;7.80;;
28958;SDS011;16066;0.000;0.000;2023-12-22T07:36:59;11.70;;;8.20;;
28958;SDS011;16066;0.000;0.000;2023-12-22T07:39:25;12.23;;;8.07;;
28958;SDS011;16066;0.000;0.000;2023-12-22T07:41:50;10.60;;;7.00;;
28958;SDS011;16066;0.000;0.000;2023-12-22T07:44:16;13.13;;;7.80;;
28958;SDS011;16066;0.000;0.000;2023-12-22T07:46:41;9.13;;;7.40;;
28958;SDS011;16066;0.000;0.000;2023-12-22T07:49:07;8.83;;;6.60;;
28958;SDS011;16066;0.000;0.000;2023-12-22T07:51:33;9.00;;;6.50;;
28958;SDS011;16066;0.000;0.000;2023-12-22T07:53:58;8.20;;;7.13;;
28958;SDS011;16066;0.000;0.000;2023-12-22T07:56:24;9.73;;;6.73;;
28958;SDS011;16066;0.000;0.000;2023-12-22T07:58:49;13.47;;;7.70;;
28958;SDS011;16066;0.000;0.000;2023-12-22T08:01:15;8.97;;;6.07;;
28958;SDS011;16066;0.000;0.000;2023-12-22T08:03:40;9.10;;;6.30;;
28958;SDS011;16066;0.000;0.000;2023-12-22T08:06:06;10.03;;;6.00;;
28958;SDS011;16066;0.000;0.000;2023-12-22T08:08:33;6.63;;;5.57;;
28958;SDS011;16066;0.000;0.000;2023-12-22T08:10:59;9.93;;;6.30;;
28958;SDS011;16066;0.000;0.000;2023-12-22T08:13:25;8.67;;;6.67;;
28958;SDS011;16066;0.000;0.000;2023-12-22T08:15:50;9.90;;;6.03;;
28958;SDS011;16066;0.000;0.000;2023-12-22T08:18:16;10.00;;;6.17;;
28958;SDS011;16066;0.000;0.000;2023-12-22T08:20:41;7.30;;;5.70;;
28958;SDS011;16066;0.000;0.000;2023-12-22T08:23:07;8.20;;;5.70;;
28958;SDS011;16066;0.000;0.000;2023-12-22T08:25:32;7.77;;;5.33;;
28958;SDS011;16066;0.000;0.000;2023-12-22T08:27:58;9.50;;;5.40;;
28958;SDS011;16066;0.000;0.000;2023-12-22T08:30:23;7.87;;;5.53;;
28958;SDS011;16066;0.000;0.000;2023-12-22T08:32:49;8.77;;;5.70;;
28958;SDS011;16066;0.000;0.000;2023-12-22T08:35:15;10.20;;;5.20;;
28958;SDS011;16066;0.000;0.000;2023-12-22T08:37:41;7.57;;;4.87;;
28958;SDS011;16066;0.000;0.000;2023-12-22T08:40:07;9.77;;;5.70;;
28958;SDS011;16066;0.000;0.000;2023-12-22T08:42:33;5.43;;;4.50;;
28958;SDS011;16066;0.000;0.000;2023-12-22T08:44:58;13.90;;;6.07;;
28958;SDS011;16066;0.000;0.000;2023-12-22T08:47:24;9.80;;;5.67;;
28958;SDS011;16066;0.000;0.000;2023-12-22T08:49:50;7.90;;;5.50;;
28958;SDS011;16066;0.000;0.000;2023-12-22T08:52:16;7.80;;;5.60;;
28958;SDS011;16066;0.000;0.000;2023-12-22T08:54:41;6.90;;;4.10;;
28958;SDS011;16066;0.000;0.000;2023-12-22T08:57:07;8.83;;;5.10;;
28958;SDS011;16066;0.000;0.000;2023-12-22T08:59:34;10.83;;;5.43;;
28958;SDS011;16066;0.000;0.000;2023-12-22T09:01:59;7.37;;;4.80;;
28958;SDS011;16066;0.000;0.000;2023-12-22T09:04:25;6.57;;;5.43;;
28958;SDS011;16066;0.000;0.000;2023-12-22T09:06:50;7.90;;;4.80;;
28958;SDS011;16066;0.000;0.000;2023-12-22T09:09:16;8.13;;;4.63;;
28958;SDS011;16066;0.000;0.000;2023-12-22T09:11:42;9.33;;;5.17;;
28958;SDS011;16066;0.000;0.000;2023-12-22T09:14:07;6.63;;;4.17;;
28958;SDS011;16066;0.000;0.000;2023-12-22T09:16:34;6.30;;;4.67;;
28958;SDS011;16066;0.000;0.000;2023-12-22T09:19:00;7.90;;;4.43;;
28958;SDS011;16066;0.000;0.000;2023-12-22T09:21:26;6.60;;;4.60;;
28958;SDS011;16066;0.000;0.000;2023-12-22T09:23:52;14.73;;;5.00;;
28958;SDS011;16066;0.000;0.000;2023-12-22T09:26:17;8.30;;;4.70;;
28958;SDS011;16066;0.000;0.000;2023-12-22T09:28:43;9.90;;;5.93;;
28958;SDS011;16066;0.000;0.000;2023-12-22T09:31:09;9.60;;;4.30;;
28958;SDS011;16066;0.000;0.000;2023-12-22T09:33:35;6.20;;;4.90;;
28958;SDS011;16066;0.000;0.000;2023-12-22T09:36:01;8.03;;;4.97;;
28958;SDS011;16066;0.000;0.000;2023-12-22T09:38:27;10.47;;;5.00;;
28958;SDS011;16066;0.000;0.000;2023-12-22T09:40:54;6.67;;;4.33;;
28958;SDS011;16066;0.000;0.000;2023-12-22T09:43:21;6.43;;;4.67;;
28958;SDS011;16066;0.000;0.000;2023-12-22T09:45:46;9.17;;;4.30;;
28958;SDS011;16066;0.000;0.000;2023-12-22T09:48:14;6.90;;;4.40;;
28958;SDS011;16066;0.000;0.000;2023-12-22T09:50:43;10.77;;;5.00;;
28958;SDS011;16066;0.000;0.000;2023-12-22T09:53:09;11.17;;;4.97;;
28958;SDS011;16066;0.000;0.000;2023-12-22T09:55:37;6.37;;;4.37;;
28958;SDS011;16066;0.000;0.000;2023-12-22T09:58:08;8.43;;;3.87;;
28958;SDS011;16066;0.000;0.000;2023-12-22T10:00:35;8.93;;;4.87;;
28958;SDS011;16066;0.000;0.000;2023-12-22T10:03:02;11.70;;;6.57;;
28958;SDS011;16066;0.000;0.000;2023-12-22T10:05:31;9.30;;;5.20;;
28958;SDS011;16066;0.000;0.000;2023-12-22T10:07:56;8.10;;;5.37;;
28958;SDS011;16066;0.000;0.000;2023-12-22T10:10:25;7.30;;;4.57;;
28958;SDS011;16066;0.000;0.000;2023-12-22T10:12:53;7.27;;;4.63;;
28958;SDS011;16066;0.000;0.000;2023-12-22T10:15:19;12.57;;;5.67;;
28958;SDS011;16066;0.000;0.000;2023-12-22T10:17:48;19.87;;;6.80;;
28958;SDS011;16066;0.000;0.000;2023-12-22T10:20:18;16.40;;;6.53;;
28958;SDS011;16066;0.000;0.000;2023-12-22T10:22:43;16.00;;;6.27;;
28958;SDS011;16066;0.000;0.000;2023-12-22T10:25:09;14.00;;;6.50;;
28958;SDS011;16066;0.000;0.000;2023-12-22T10:27:37;17.07;;;6.80;;
28958;SDS011;16066;0.000;0.000;2023-12-22T10:30:03;10.37;;;5.50;;
28958;SDS011;16066;0.000;0.000;2023-12-22T10:32:29;11.97;;;6.23;;
28958;SDS011;16066;0.000;0.000;2023-12-22T10:34:55;11.90;;;5.60;;
28958;SDS011;16066;0.000;0.000;2023-12-22T10:37:22;11.77;;;6.27;;
28958;SDS011;16066;0.000;0.000;2023-12-22T10:39:51;10.90;;;4.97;;
28958;SDS011;16066;0.000;0.000;2023-12-22T10:42:18;10.67;;;5.20;;
28958;SDS011;16066;0.000;0.000;2023-12-22T10:44:43;11.07;;;5.33;;
28958;SDS011;16066;0.000;0.000;2023-12-22T10:47:09;9.40;;;5.30;;
28958;SDS011;16066;0.000;0.000;2023-12-22T10:49:35;9.77;;;5.50;;
28958;SDS011;16066;0.000;0.000;2023-12-22T10:52:02;8.50;;;4.67;;
28958;SDS011;16066;0.000;0.000;2023-12-22T10:54:27;8.60;;;4.73;;
28958;SDS011;16066;0.000;0.000;2023-12-22T10:56:57;11.70;;;5.37;;
28958;SDS011;16066;0.000;0.000;2023-12-22T10:59:25;13.60;;;4.50;;
28958;SDS011;16066;0.000;0.000;2023-12-22T11:01:57;10.40;;;4.73;;
28958;SDS011;16066;0.000;0.000;2023-12-22T11:04:25;7.97;;;4.33;;
28958;SDS011;16066;0.000;0.000;2023-12-22T11:06:54;7.83;;;4.23;;
28958;SDS011;16066;0.000;0.000;2023-12-22T11:09:23;11.10;;;5.10;;
28958;SDS011;16066;0.000;0.000;2023-12-22T11:11:52;7.97;;;4.47;;
28958;SDS011;16066;0.000;0.000;2023-12-22T11:14:20;12.20;;;5.13;;
28958;SDS011;16066;0.000;0.000;2023-12-22T11:16:47;8.17;;;5.20;;
28958;SDS011;16066;0.000;0.000;2023-12-22T11:19:13;8.20;;;5.03;;
28958;SDS011;16066;0.000;0.000;2023-12-22T11:21:40;10.10;;;5.47;;
28958;SDS011;16066;0.000;0.000;2023-12-22T11:24:06;9.13;;;5.37;;
28958;SDS011;16066;0.000;0.000;2023-12-22T11:26:32;8.53;;;5.30;;
28958;SDS011;16066;0.000;0.000;2023-12-22T11:28:58;9.00;;;5.83;;
28958;SDS011;16066;0.000;0.000;2023-12-22T11:31:25;8.13;;;4.77;;
28958;SDS011;16066;0.000;0.000;2023-12-22T11:33:52;8.60;;;5.10;;
28958;SDS011;16066;0.000;0.000;2023-12-22T11:36:20;10.70;;;5.50;;
28958;SDS011;16066;0.000;0.000;2023-12-22T11:38:48;9.87;;;5.67;;
28958;SDS011;16066;0.000;0.000;2023-12-22T11:41:21;9.00;;;5.13;;
28958;SDS011;16066;0.000;0.000;2023-12-22T11:43:52;8.90;;;5.53;;
28958;SDS011;16066;0.000;0.000;2023-12-22T11:46:19;9.47;;;5.57;;
28958;SDS011;16066;0.000;0.000;2023-12-22T11:48:48;10.80;;;5.50;;
28958;SDS011;16066;0.000;0.000;2023-12-22T11:51:17;7.20;;;4.80;;
28958;SDS011;16066;0.000;0.000;2023-12-22T11:53:43;6.90;;;4.77;;
28958;SDS011;16066;0.000;0.000;2023-12-22T11:56:10;16.57;;;5.00;;
28958;SDS011;16066;0.000;0.000;2023-12-22T11:58:44;9.03;;;5.10;;
28958;SDS011;16066;0.000;0.000;2023-12-22T12:01:18;10.30;;;5.17;;
28958;SDS011;16066;0.000;0.000;2023-12-22T12:04:02;8.30;;;4.97;;
28958;SDS011;16066;0.000;0.000;2023-12-22T12:08:54;8.37;;;4.83;;
28958;SDS011;16066;0.000;0.000;2023-12-22T12:11:21;8.23;;;5.10;;
28958;SDS011;16066;0.000;0.000;2023-12-22T12:13:49;6.23;;;4.20;;
28958;SDS011;16066;0.000;0.000;2023-12-22T12:16:19;8.40;;;4.90;;
28958;SDS011;16066;0.000;0.000;2023-12-22T12:18:49;7.47;;;4.93;;
28958;SDS011;16066;0.000;0.000;2023-12-22T12:21:15;6.77;;;4.50;;
28958;SDS011;16066;0.000;0.000;2023-12-22T12:23:41;7.17;;;4.47;;
28958;SDS011;16066;0.000;0.000;2023-12-22T12:26:07;5.73;;;3.87;;
28958;SDS011;16066;0.000;0.000;2023-12-22T12:28:34;7.43;;;4.90;;
28958;SDS011;16066;0.000;0.000;2023-12-22T12:31:04;9.23;;;4.50;;
28958;SDS011;16066;0.000;0.000;2023-12-22T12:33:31;5.70;;;3.87;;
28958;SDS011;16066;0.000;0.000;2023-12-22T12:35:58;8.27;;;5.00;;
28958;SDS011;16066;0.000;0.000;2023-12-22T12:38:33;8.70;;;5.20;;
28958;SDS011;16066;0.000;0.000;2023-12-22T12:41:05;7.67;;;5.07;;
28958;SDS011;16066;0.000;0.000;2023-12-22T12:43:30;11.30;;;5.77;;
28958;SDS011;16066;0.000;0.000;2023-12-22T12:46:04;9.23;;;5.93;;
28958;SDS011;16066;0.000;0.000;2023-12-22T12:48:30;10.30;;;5.77;;
28958;SDS011;16066;0.000;0.000;2023-12-22T12:51:00;9.40;;;5.60;;
28958;SDS011;16066;0.000;0.000;2023-12-22T12:53:27;6.77;;;5.43;;
28958;SDS011;16066;0.000;0.000;2023-12-22T12:55:55;10.37;;;5.77;;
28958;SDS011;16066;0.000;0.000;2023-12-22T12:58:21;7.43;;;4.83;;
28958;SDS011;16066;0.000;0.000;2023-12-22T13:00:51;11.68;;;5.40;;
28958;SDS011;16066;0.000;0.000;2023-12-22T13:03:21;7.47;;;4.63;;
28958;SDS011;16066;0.000;0.000;2023-12-22T13:05:47;11.17;;;5.80;;
28958;SDS011;16066;0.000;0.000;2023-12-22T13:08:13;12.13;;;5.47;;
28958;SDS011;16066;0.000;0.000;2023-12-22T13:10:39;16.90;;;6.03;;
28958;SDS011;16066;0.000;0.000;2023-12-22T13:13:05;19.43;;;6.90;;
28958;SDS011;16066;0.000;0.000;2023-12-22T13:15:31;11.50;;;6.27;;
28958;SDS011;16066;0.000;0.000;2023-12-22T13:17:57;10.03;;;5.37;;
28958;SDS011;16066;0.000;0.000;2023-12-22T13:20:23;10.33;;;6.00;;
28958;SDS011;16066;0.000;0.000;2023-12-22T13:22:48;23.13;;;9.77;;
28958;SDS011;16066;0.000;0.000;2023-12-22T13:25:14;71.80;;;22.40;;
28958;SDS011;16066;0.000;0.000;2023-12-22T13:27:47;78.60;;;25.27;;
28958;SDS011;16066;0.000;0.000;2023-12-22T13:32:57;51.93;;;18.87;;
28958;SDS011;16066;0.000;0.000;2023-12-22T13:35:23;52.90;;;18.63;;
28958;SDS011;16066;0.000;0.000;2023-12-22T13:37:49;48.83;;;19.13;;
28958;SDS011;16066;0.000;0.000;2023-12-22T13:40:15;59.07;;;16.80;;
28958;SDS011;16066;0.000;0.000;2023-12-22T13:42:40;37.40;;;15.93;;
28958;SDS011;16066;0.000;0.000;2023-12-22T13:45:10;32.70;;;13.67;;
28958;SDS011;16066;0.000;0.000;2023-12-22T13:47:41;45.07;;;13.53;;
28958;SDS011;16066;0.000;0.000;2023-12-22T13:50:13;32.33;;;12.63;;
28958;SDS011;16066;0.000;0.000;2023-12-22T13:52:40;31.80;;;12.47;;
28958;SDS011;16066;0.000;0.000;2023-12-22T13:55:12;26.90;;;12.17;;
28958;SDS011;16066;0.000;0.000;2023-12-22T13:57:38;20.30;;;9.90;;
28958;SDS011;16066;0.000;0.000;2023-12-22T14:00:25;21.27;;;10.47;;
28958;SDS011;16066;0.000;0.000;2023-12-22T14:02:51;22.90;;;10.13;;
28958;SDS011;16066;0.000;0.000;2023-12-22T14:05:20;22.33;;;8.80;;
28958;SDS011;16066;0.000;0.000;2023-12-22T14:07:49;19.60;;;9.00;;
28958;SDS011;16066;0.000;0.000;2023-12-22T14:10:15;17.23;;;8.57;;
28958;SDS011;16066;0.000;0.000;2023-12-22T14:12:40;18.67;;;8.20;;
28958;SDS011;16066;0.000;0.000;2023-12-22T14:15:06;17.77;;;8.20;;
28958;SDS011;16066;0.000;0.000;2023-12-22T14:17:33;17.47;;;8.20;;
28958;SDS011;16066;0.000;0.000;2023-12-22T14:19:58;18.20;;;7.67;;
28958;SDS011;16066;0.000;0.000;2023-12-22T14:22:24;13.77;;;6.57;;
28958;SDS011;16066;0.000;0.000;2023-12-22T14:24:50;19.17;;;6.10;;
28958;SDS011;16066;0.000;0.000;2023-12-22T14:27:15;14.50;;;7.00;;
28958;SDS011;16066;0.000;0.000;2023-12-22T14:29:43;18.30;;;6.53;;
28958;SDS011;16066;0.000;0.000;2023-12-22T14:32:09;12.20;;;5.63;;
28958;SDS011;16066;0.000;0.000;2023-12-22T14:34:36;12.50;;;5.97;;
28958;SDS011;16066;0.000;0.000;2023-12-22T14:37:01;9.23;;;5.17;;
28958;SDS011;16066;0.000;0.000;2023-12-22T14:39:27;13.27;;;5.40;;
28958;SDS011;16066;0.000;0.000;2023-12-22T14:41:53;14.23;;;5.83;;
28958;SDS011;16066;0.000;0.000;2023-12-22T14:44:18;11.37;;;4.87;;
28958;SDS011;16066;0.000;0.000;2023-12-22T14:46:44;14.57;;;6.83;;
28958;SDS011;16066;0.000;0.000;2023-12-22T14:49:10;13.20;;;5.50;;
28958;SDS011;16066;0.000;0.000;2023-12-22T14:51:36;12.77;;;5.27;;
28958;SDS011;16066;0.000;0.000;2023-12-22T14:54:03;12.90;;;5.80;;
28958;SDS011;16066;0.000;0.000;2023-12-22T14:56:33;10.67;;;5.30;;
28958;SDS011;16066;0.000;0.000;2023-12-22T14:58:59;8.83;;;5.13;;
28958;SDS011;16066;0.000;0.000;2023-12-22T15:01:25;21.50;;;5.83;;
28958;SDS011;16066;0.000;0.000;2023-12-22T15:03:51;12.00;;;4.60;;
28958;SDS011;16066;0.000;0.000;2023-12-22T15:06:16;15.20;;;6.83;;
28958;SDS011;16066;0.000;0.000;2023-12-22T15:08:42;12.67;;;6.87;;
28958;SDS011;16066;0.000;0.000;2023-12-22T15:11:07;38.57;;;12.07;;
28958;SDS011;16066;0.000;0.000;2023-12-22T15:13:33;22.70;;;9.67;;
28958;SDS011;16066;0.000;0.000;2023-12-22T15:16:03;27.17;;;10.70;;
28958;SDS011;16066;0.000;0.000;2023-12-22T15:18:32;26.77;;;10.77;;
28958;SDS011;16066;0.000;0.000;2023-12-22T15:20:57;24.00;;;9.53;;
28958;SDS011;16066;0.000;0.000;2023-12-22T15:23:24;21.33;;;8.80;;
28958;SDS011;16066;0.000;0.000;2023-12-22T15:25:50;23.00;;;8.40;;
28958;SDS011;16066;0.000;0.000;2023-12-22T15:28:16;20.60;;;8.47;;
28958;SDS011;16066;0.000;0.000;2023-12-22T15:30:41;18.23;;;7.30;;
28958;SDS011;16066;0.000;0.000;2023-12-22T15:33:07;18.10;;;7.60;;
28958;SDS011;16066;0.000;0.000;2023-12-22T15:35:33;15.77;;;7.40;;
28958;SDS011;16066;0.000;0.000;2023-12-22T15:37:58;16.20;;;7.43;;
28958;SDS011;16066;0.000;0.000;2023-12-22T15:40:24;13.83;;;7.50;;
28958;SDS011;16066;0.000;0.000;2023-12-22T15:42:50;13.97;;;7.90;;
28958;SDS011;16066;0.000;0.000;2023-12-22T15:45:15;18.73;;;7.10;;
28958;SDS011;16066;0.000;0.000;2023-12-22T15:47:41;10.77;;;6.40;;
28958;SDS011;16066;0.000;0.000;2023-12-22T15:50:07;11.97;;;5.40;;
28958;SDS011;16066;0.000;0.000;2023-12-22T15:52:35;11.90;;;6.50;;
28958;SDS011;16066;0.000;0.000;2023-12-22T15:55:01;13.67;;;5.93;;
28958;SDS011;16066;0.000;0.000;2023-12-22T15:57:26;11.23;;;5.80;;
28958;SDS011;16066;0.000;0.000;2023-12-22T15:59:52;16.10;;;6.00;;
28958;SDS011;16066;0.000;0.000;2023-12-22T16:02:18;9.73;;;5.60;;
28958;SDS011;16066;0.000;0.000;2023-12-22T16:04:44;14.13;;;5.37;;
28958;SDS011;16066;0.000;0.000;2023-12-22T16:07:10;11.47;;;6.10;;
28958;SDS011;16066;0.000;0.000;2023-12-22T16:09:36;10.87;;;5.80;;
28958;SDS011;16066;0.000;0.000;2023-12-22T16:12:01;10.60;;;5.10;;
28958;SDS011;16066;0.000;0.000;2023-12-22T16:14:27;9.03;;;5.30;;
28958;SDS011;16066;0.000;0.000;2023-12-22T16:16:54;9.20;;;5.60;;
28958;SDS011;16066;0.000;0.000;2023-12-22T16:19:23;9.23;;;4.90;;
28958;SDS011;16066;0.000;0.000;2023-12-22T16:21:48;8.83;;;5.37;;
28958;SDS011;16066;0.000;0.000;2023-12-22T16:24:20;10.53;;;5.40;;
28958;SDS011;16066;0.000;0.000;2023-12-22T16:26:46;11.73;;;5.70;;
28958;SDS011;16066;0.000;0.000;2023-12-22T16:29:12;8.20;;;4.57;;
28958;SDS011;16066;0.000;0.000;2023-12-22T16:31:38;12.03;;;5.33;;
28958;SDS011;16066;0.000;0.000;2023-12-22T16:34:05;10.43;;;4.80;;
28958;SDS011;16066;0.000;0.000;2023-12-22T16:36:30;8.63;;;4.70;;
28958;SDS011;16066;0.000;0.000;2023-12-22T16:38:56;11.27;;;5.40;;
28958;SDS011;16066;0.000;0.000;2023-12-22T16:41:22;8.83;;;4.80;;
28958;SDS011;16066;0.000;0.000;2023-12-22T16:43:47;6.40;;;4.70;;
28958;SDS011;16066;0.000;0.000;2023-12-22T16:46:18;12.20;;;5.43;;
28958;SDS011;16066;0.000;0.000;2023-12-22T16:48:44;7.50;;;4.53;;
28958;SDS011;16066;0.000;0.000;2023-12-22T16:51:10;6.03;;;4.67;;
28958;SDS011;16066;0.000;0.000;2023-12-22T16:53:36;5.73;;;4.00;;
28958;SDS011;16066;0.000;0.000;2023-12-22T16:56:01;7.10;;;4.67;;
28958;SDS011;16066;0.000;0.000;2023-12-22T16:58:27;9.37;;;5.23;;
28958;SDS011;16066;0.000;0.000;2023-12-22T17:00:53;7.73;;;4.60;;
28958;SDS011;16066;0.000;0.000;2023-12-22T17:03:18;6.50;;;4.57;;
28958;SDS011;16066;0.000;0.000;2023-12-22T17:05:44;9.10;;;5.23;;
28958;SDS011;16066;0.000;0.000;2023-12-22T17:08:09;7.43;;;4.70;;
28958;SDS011;16066;0.000;0.000;2023-12-22T17:10:36;9.00;;;5.07;;
28958;SDS011;16066;0.000;0.000;2023-12-22T17:13:02;8.80;;;4.67;;
28958;SDS011;16066;0.000;0.000;2023-12-22T17:15:29;10.17;;;4.60;;
28958;SDS011;16066;0.000;0.000;2023-12-22T17:17:54;8.07;;;5.33;;
28958;SDS011;16066;0.000;0.000;2023-12-22T17:20:20;6.80;;;4.50;;
28958;SDS011;16066;0.000;0.000;2023-12-22T17:22:45;9.23;;;5.00;;
28958;SDS011;16066;0.000;0.000;2023-12-22T17:25:12;7.83;;;4.90;;
28958;SDS011;16066;0.000;0.000;2023-12-22T17:27:38;10.80;;;5.17;;
28958;SDS011;16066;0.000;0.000;2023-12-22T17:30:04;6.70;;;4.63;;
28958;SDS011;16066;0.000;0.000;2023-12-22T17:32:30;8.47;;;5.00;;
28958;SDS011;16066;0.000;0.000;2023-12-22T17:34:56;7.37;;;5.37;;
28958;SDS011;16066;0.000;0.000;2023-12-22T17:37:22;7.30;;;4.17;;
28958;SDS011;16066;0.000;0.000;2023-12-22T17:39:47;9.60;;;5.27;;
28958;SDS011;16066;0.000;0.000;2023-12-22T17:42:13;8.70;;;4.77;;
28958;SDS011;16066;0.000;0.000;2023-12-22T17:44:38;7.20;;;5.23;;
28958;SDS011;16066;0.000;0.000;2023-12-22T17:47:04;7.13;;;4.90;;
28958;SDS011;16066;0.000;0.000;2023-12-22T17:49:30;8.53;;;4.83;;
28958;SDS011;16066;0.000;0.000;2023-12-22T17:51:56;7.47;;;4.97;;
28958;SDS011;16066;0.000;0.000;2023-12-22T17:54:22;12.80;;;5.60;;
28958;SDS011;16066;0.000;0.000;2023-12-22T17:56:48;9.20;;;5.77;;
28958;SDS011;16066;0.000;0.000;2023-12-22T17:59:14;7.53;;;5.13;;
28958;SDS011;16066;0.000;0.000;2023-12-22T18:01:40;9.63;;;5.20;;
28958;SDS011;16066;0.000;0.000;2023-12-22T18:04:06;7.70;;;5.03;;
28958;SDS011;16066;0.000;0.000;2023-12-22T18:06:32;7.47;;;4.97;;
28958;SDS011;16066;0.000;0.000;2023-12-22T18:08:57;11.10;;;8.23;;
28958;SDS011;16066;0.000;0.000;2023-12-22T18:11:23;12.93;;;8.77;;
28958;SDS011;16066;0.000;0.000;2023-12-22T18:13:48;17.57;;;10.77;;
28958;SDS011;16066;0.000;0.000;2023-12-22T18:16:17;12.70;;;7.73;;
28958;SDS011;16066;0.000;0.000;2023-12-22T18:18:44;12.07;;;7.93;;
28958;SDS011;16066;0.000;0.000;2023-12-22T18:21:09;10.87;;;7.80;;
28958;SDS011;16066;0.000;0.000;2023-12-22T18:23:36;10.67;;;6.70;;
28958;SDS011;16066;0.000;0.000;2023-12-22T18:26:02;9.60;;;6.97;;
28958;SDS011;16066;0.000;0.000;2023-12-22T18:28:27;9.27;;;6.00;;
28958;SDS011;16066;0.000;0.000;2023-12-22T18:30:53;12.93;;;6.70;;
28958;SDS011;16066;0.000;0.000;2023-12-22T18:33:19;7.87;;;6.03;;
28958;SDS011;16066;0.000;0.000;2023-12-22T18:35:48;9.40;;;6.20;;
28958;SDS011;16066;0.000;0.000;2023-12-22T18:38:16;8.83;;;6.30;;
28958;SDS011;16066;0.000;0.000;2023-12-22T18:40:42;9.47;;;6.00;;
28958;SDS011;16066;0.000;0.000;2023-12-22T18:43:08;8.77;;;6.67;;
28958;SDS011;16066;0.000;0.000;2023-12-22T18:45:34;9.03;;;6.27;;
28958;SDS011;16066;0.000;0.000;2023-12-22T18:48:00;8.77;;;6.30;;
28958;SDS011;16066;0.000;0.000;2023-12-22T18:50:26;7.70;;;6.17;;
28958;SDS011;16066;0.000;0.000;2023-12-22T18:52:52;6.80;;;5.17;;
28958;SDS011;16066;0.000;0.000;2023-12-22T18:55:18;10.00;;;6.10;;
28958;SDS011;16066;0.000;0.000;2023-12-22T18:57:43;10.60;;;5.90;;
28958;SDS011;16066;0.000;0.000;2023-12-22T19:00:09;8.90;;;6.70;;
28958;SDS011;16066;0.000;0.000;2023-12-22T19:02:35;8.20;;;4.93;;
28958;SDS011;16066;0.000;0.000;2023-12-22T19:05:00;10.40;;;6.60;;
28958;SDS011;16066;0.000;0.000;2023-12-22T19:07:26;7.87;;;5.30;;
28958;SDS011;16066;0.000;0.000;2023-12-22T19:09:53;9.27;;;5.60;;
28958;SDS011;16066;0.000;0.000;2023-12-22T19:12:19;7.10;;;5.23;;
28958;SDS011;16066;0.000;0.000;2023-12-22T19:14:45;8.40;;;5.53;;
28958;SDS011;16066;0.000;0.000;2023-12-22T19:17:11;6.90;;;5.20;;
28958;SDS011;16066;0.000;0.000;2023-12-22T19:19:36;7.83;;;5.87;;
28958;SDS011;16066;0.000;0.000;2023-12-22T19:22:02;7.30;;;5.50;;
28958;SDS011;16066;0.000;0.000;2023-12-22T19:24:29;8.90;;;5.30;;
28958;SDS011;16066;0.000;0.000;2023-12-22T19:26:56;8.83;;;5.90;;
28958;SDS011;16066;0.000;0.000;2023-12-22T19:29:22;7.63;;;4.80;;
28958;SDS011;16066;0.000;0.000;2023-12-22T19:31:48;6.77;;;5.13;;
28958;SDS011;16066;0.000;0.000;2023-12-22T19:34:13;7.37;;;5.40;;
28958;SDS011;16066;0.000;0.000;2023-12-22T19:36:39;8.23;;;5.57;;
28958;SDS011;16066;0.000;0.000;2023-12-22T19:39:05;11.70;;;5.80;;
28958;SDS011;16066;0.000;0.000;2023-12-22T19:41:30;7.27;;;5.57;;
28958;SDS011;16066;0.000;0.000;2023-12-22T19:43:59;7.70;;;5.70;;
28958;SDS011;16066;0.000;0.000;2023-12-22T19:46:24;6.60;;;4.40;;
28958;SDS011;16066;0.000;0.000;2023-12-22T19:48:50;8.87;;;6.07;;
28958;SDS011;16066;0.000;0.000;2023-12-22T19:51:15;9.30;;;6.30;;
28958;SDS011;16066;0.000;0.000;2023-12-22T19:53:42;9.20;;;6.20;;
28958;SDS011;16066;0.000;0.000;2023-12-22T19:56:07;10.37;;;6.70;;
28958;SDS011;16066;0.000;0.000;2023-12-22T19:58:33;8.80;;;6.50;;
28958;SDS011;16066;0.000;0.000;2023-12-22T20:00:58;8.73;;;7.13;;
28958;SDS011;16066;0.000;0.000;2023-12-22T20:03:24;8.30;;;6.37;;
28958;SDS011;16066;0.000;0.000;2023-12-22T20:05:51;9.90;;;6.10;;
28958;SDS011;16066;0.000;0.000;2023-12-22T20:08:17;15.07;;;7.30;;
28958;SDS011;16066;0.000;0.000;2023-12-22T20:10:43;11.93;;;8.00;;
28958;SDS011;16066;0.000;0.000;2023-12-22T20:13:08;9.97;;;7.67;;
28958;SDS011;16066;0.000;0.000;2023-12-22T20:15:34;12.30;;;8.70;;
28958;SDS011;16066;0.000;0.000;2023-12-22T20:18:00;13.87;;;8.83;;
28958;SDS011;16066;0.000;0.000;2023-12-22T20:20:25;13.90;;;9.87;;
28958;SDS011;16066;0.000;0.000;2023-12-22T20:22:51;13.53;;;8.53;;
28958;SDS011;16066;0.000;0.000;2023-12-22T20:25:17;15.53;;;8.80;;
28958;SDS011;16066;0.000;0.000;2023-12-22T20:27:42;11.10;;;8.20;;
28958;SDS011;16066;0.000;0.000;2023-12-22T20:30:08;9.13;;;7.30;;
28958;SDS011;16066;0.000;0.000;2023-12-22T20:32:34;12.50;;;7.60;;
28958;SDS011;16066;0.000;0.000;2023-12-22T20:34:59;10.27;;;8.27;;
28958;SDS011;16066;0.000;0.000;2023-12-22T20:37:28;9.83;;;6.80;;
28958;SDS011;16066;0.000;0.000;2023-12-22T20:39:54;10.30;;;7.80;;
28958;SDS011;16066;0.000;0.000;2023-12-22T20:42:19;12.40;;;7.30;;
28958;SDS011;16066;0.000;0.000;2023-12-22T20:44:45;11.27;;;7.30;;
28958;SDS011;16066;0.000;0.000;2023-12-22T20:47:11;10.40;;;7.67;;
28958;SDS011;16066;0.000;0.000;2023-12-22T20:49:36;12.83;;;7.87;;
28958;SDS011;16066;0.000;0.000;2023-12-22T20:52:04;12.43;;;7.50;;
28958;SDS011;16066;0.000;0.000;2023-12-22T20:54:31;12.00;;;8.30;;
28958;SDS011;16066;0.000;0.000;2023-12-22T20:56:58;10.93;;;7.30;;